VE-0044 weather

Centro Lago I Heliport
Zulia, Venezuela

Public forecast

Using degrees Celsius for public forecast. Weather courtesy of forecast.io.

METAR (pilot weather report)

Report is more than 6 hours old.

Closest report is Mene Grande Airport, 33.6 nm (62.2 km) E. Retrieved 2018/11/14 15:00 UTC (5 months ago):

SVMN 141500Z /////KT 9999 BKN017 30/26 Q1014

TAF (pilot weather forecast)

Closest forecast is La Chinita International Airport, 44.2 nm (81.8 km) NNW. Retrieved 2019/04/21 06:10 UTC (2 hours ago):

TAF SVMC 210400Z 2106/2206 00000KT 9999 SCT013 TX35/18Z TN25/08Z TEMPO 2106/2110 8000 DZ BKN010